sensor_id;sensor_type;location;lat;lon;timestamp;temperature;humidity
40151;DHT22;25866;52.420;10.640;2023-09-19T00:01:40;16.80;99.90
40151;DHT22;25866;52.420;10.640;2023-09-19T00:04:07;16.80;99.90
40151;DHT22;25866;52.420;10.640;2023-09-19T00:06:36;16.80;99.90
40151;DHT22;25866;52.420;10.640;2023-09-19T00:09:03;16.80;99.90
40151;DHT22;25866;52.420;10.640;2023-09-19T00:11:29;16.80;99.90
40151;DHT22;25866;52.420;10.640;2023-09-19T00:13:55;16.80;99.90
40151;DHT22;25866;52.420;10.640;2023-09-19T00:16:20;16.70;99.90
40151;DHT22;25866;52.420;10.640;2023-09-19T00:18:46;16.70;99.90
40151;DHT22;25866;52.420;10.640;2023-09-19T00:21:14;16.70;99.90
40151;DHT22;25866;52.420;10.640;2023-09-19T00:23:41;16.60;99.90
40151;DHT22;25866;52.420;10.640;2023-09-19T00:26:07;16.60;99.90
40151;DHT22;25866;52.420;10.640;2023-09-19T00:28:33;16.60;99.90
40151;DHT22;25866;52.420;10.640;2023-09-19T00:30:59;16.60;99.90
40151;DHT22;25866;52.420;10.640;2023-09-19T00:33:27;16.60;99.90
40151;DHT22;25866;52.420;10.640;2023-09-19T00:35:56;16.50;99.90
40151;DHT22;25866;52.420;10.640;2023-09-19T00:38:23;16.60;99.90
40151;DHT22;25866;52.420;10.640;2023-09-19T00:40:53;16.50;99.90
40151;DHT22;25866;52.420;10.640;2023-09-19T00:43:23;16.50;99.90
40151;DHT22;25866;52.420;10.640;2023-09-19T00:45:51;16.50;99.90
40151;DHT22;25866;52.420;10.640;2023-09-19T00:48:19;16.50;99.90
40151;DHT22;25866;52.420;10.640;2023-09-19T00:50:46;16.60;99.90
40151;DHT22;25866;52.420;10.640;2023-09-19T00:53:15;16.50;99.90
40151;DHT22;25866;52.420;10.640;2023-09-19T00:55:45;16.50;99.90
40151;DHT22;25866;52.420;10.640;2023-09-19T00:58:12;16.50;99.90
40151;DHT22;25866;52.420;10.640;2023-09-19T01:00:38;16.50;99.90
40151;DHT22;25866;52.420;10.640;2023-09-19T01:03:05;16.60;99.90
40151;DHT22;25866;52.420;10.640;2023-09-19T01:05:33;16.60;99.90
40151;DHT22;25866;52.420;10.640;2023-09-19T01:07:59;16.60;99.90
40151;DHT22;25866;52.420;10.640;2023-09-19T01:10:25;16.60;99.90
40151;DHT22;25866;52.420;10.640;2023-09-19T01:23:55;16.50;99.90
40151;DHT22;25866;52.420;10.640;2023-09-19T01:26:44;16.40;99.90
40151;DHT22;25866;52.420;10.640;2023-09-19T01:29:39;16.40;99.90
40151;DHT22;25866;52.420;10.640;2023-09-19T01:32:11;16.40;99.90
40151;DHT22;25866;52.420;10.640;2023-09-19T01:37:13;16.40;99.90
40151;DHT22;25866;52.420;10.640;2023-09-19T01:39:40;16.30;99.90
40151;DHT22;25866;52.420;10.640;2023-09-19T01:42:18;16.30;99.90
40151;DHT22;25866;52.420;10.640;2023-09-19T01:50:11;16.30;99.90
40151;DHT22;25866;52.420;10.640;2023-09-19T01:52:47;16.30;99.90
40151;DHT22;25866;52.420;10.640;2023-09-19T01:55:15;16.40;99.90
40151;DHT22;25866;52.420;10.640;2023-09-19T02:00:21;16.30;99.90
40151;DHT22;25866;52.420;10.640;2023-09-19T02:02:49;16.30;99.90
40151;DHT22;25866;52.420;10.640;2023-09-19T02:05:25;16.30;99.90
40151;DHT22;25866;52.420;10.640;2023-09-19T02:07:53;16.30;99.90
40151;DHT22;25866;52.420;10.640;2023-09-19T02:10:20;16.20;99.90
40151;DHT22;25866;52.420;10.640;2023-09-19T02:12:45;16.30;99.90
40151;DHT22;25866;52.420;10.640;2023-09-19T02:15:12;16.20;99.90
40151;DHT22;25866;52.420;10.640;2023-09-19T02:17:41;16.30;99.90
40151;DHT22;25866;52.420;10.640;2023-09-19T02:20:08;16.30;99.90
40151;DHT22;25866;52.420;10.640;2023-09-19T02:22:36;16.30;99.90
40151;DHT22;25866;52.420;10.640;2023-09-19T02:25:02;16.30;99.90
40151;DHT22;25866;52.420;10.640;2023-09-19T02:27:30;16.20;99.90
40151;DHT22;25866;52.420;10.640;2023-09-19T02:29:58;16.20;99.90
40151;DHT22;25866;52.420;10.640;2023-09-19T02:32:24;16.20;99.90
40151;DHT22;25866;52.420;10.640;2023-09-19T02:34:50;16.20;99.90
40151;DHT22;25866;52.420;10.640;2023-09-19T02:37:17;16.10;99.90
40151;DHT22;25866;52.420;10.640;2023-09-19T02:39:46;16.10;99.90
40151;DHT22;25866;52.420;10.640;2023-09-19T02:42:11;16.10;99.90
40151;DHT22;25866;52.420;10.640;2023-09-19T02:44:37;16.10;99.90
40151;DHT22;25866;52.420;10.640;2023-09-19T02:47:04;16.10;99.90
40151;DHT22;25866;52.420;10.640;2023-09-19T02:49:30;16.10;99.90
40151;DHT22;25866;52.420;10.640;2023-09-19T02:54:32;16.10;99.90
40151;DHT22;25866;52.420;10.640;2023-09-19T02:56:58;16.00;99.90
40151;DHT22;25866;52.420;10.640;2023-09-19T02:59:24;16.00;99.90
40151;DHT22;25866;52.420;10.640;2023-09-19T03:01:50;16.00;99.90
40151;DHT22;25866;52.420;10.640;2023-09-19T03:04:17;16.00;99.90
40151;DHT22;25866;52.420;10.640;2023-09-19T03:06:45;15.90;99.90
40151;DHT22;25866;52.420;10.640;2023-09-19T03:09:11;15.90;99.90
40151;DHT22;25866;52.420;10.640;2023-09-19T03:11:38;15.90;99.90
40151;DHT22;25866;52.420;10.640;2023-09-19T03:14:08;15.90;99.90
40151;DHT22;25866;52.420;10.640;2023-09-19T03:16:35;15.90;99.90
40151;DHT22;25866;52.420;10.640;2023-09-19T03:19:03;15.90;99.90
40151;DHT22;25866;52.420;10.640;2023-09-19T03:21:28;15.90;99.90
40151;DHT22;25866;52.420;10.640;2023-09-19T03:23:56;15.90;99.90
40151;DHT22;25866;52.420;10.640;2023-09-19T03:26:21;15.90;99.90
40151;DHT22;25866;52.420;10.640;2023-09-19T03:28:47;15.90;99.90
40151;DHT22;25866;52.420;10.640;2023-09-19T03:31:13;15.80;99.90
40151;DHT22;25866;52.420;10.640;2023-09-19T03:33:39;15.80;99.90
40151;DHT22;25866;52.420;10.640;2023-09-19T03:36:05;15.80;99.90
40151;DHT22;25866;52.420;10.640;2023-09-19T03:38:31;15.80;99.90
40151;DHT22;25866;52.420;10.640;2023-09-19T03:40:57;15.70;99.90
40151;DHT22;25866;52.420;10.640;2023-09-19T03:43:23;15.70;99.90
40151;DHT22;25866;52.420;10.640;2023-09-19T03:45:50;15.70;99.90
40151;DHT22;25866;52.420;10.640;2023-09-19T03:48:16;15.70;99.90
40151;DHT22;25866;52.420;10.640;2023-09-19T03:50:42;15.70;99.90
40151;DHT22;25866;52.420;10.640;2023-09-19T03:53:09;15.70;99.90
40151;DHT22;25866;52.420;10.640;2023-09-19T03:55:35;15.70;99.90
40151;DHT22;25866;52.420;10.640;2023-09-19T03:58:01;15.70;99.90
40151;DHT22;25866;52.420;10.640;2023-09-19T04:00:27;15.70;99.90
40151;DHT22;25866;52.420;10.640;2023-09-19T04:02:55;15.70;99.90
40151;DHT22;25866;52.420;10.640;2023-09-19T04:05:25;15.70;99.90
40151;DHT22;25866;52.420;10.640;2023-09-19T04:07:51;15.70;99.90
40151;DHT22;25866;52.420;10.640;2023-09-19T04:10:16;15.60;99.90
40151;DHT22;25866;52.420;10.640;2023-09-19T04:12:56;15.70;99.90
40151;DHT22;25866;52.420;10.640;2023-09-19T04:15:23;15.60;99.90
40151;DHT22;25866;52.420;10.640;2023-09-19T04:17:52;15.60;99.90
40151;DHT22;25866;52.420;10.640;2023-09-19T04:20:18;15.60;99.90
40151;DHT22;25866;52.420;10.640;2023-09-19T04:22:51;15.60;99.90
40151;DHT22;25866;52.420;10.640;2023-09-19T04:25:18;15.60;99.90
40151;DHT22;25866;52.420;10.640;2023-09-19T04:27:44;15.60;99.90
40151;DHT22;25866;52.420;10.640;2023-09-19T04:30:10;15.60;99.90
40151;DHT22;25866;52.420;10.640;2023-09-19T04:32:40;15.60;99.90
40151;DHT22;25866;52.420;10.640;2023-09-19T04:35:08;15.60;99.90
40151;DHT22;25866;52.420;10.640;2023-09-19T04:37:38;15.60;99.90
40151;DHT22;25866;52.420;10.640;2023-09-19T04:40:09;15.60;99.90
40151;DHT22;25866;52.420;10.640;2023-09-19T04:42:40;15.50;99.90
40151;DHT22;25866;52.420;10.640;2023-09-19T04:45:07;15.60;99.90
40151;DHT22;25866;52.420;10.640;2023-09-19T04:47:35;15.60;99.90
40151;DHT22;25866;52.420;10.640;2023-09-19T04:50:01;15.60;99.90
40151;DHT22;25866;52.420;10.640;2023-09-19T04:52:27;15.60;99.90
40151;DHT22;25866;52.420;10.640;2023-09-19T04:54:56;15.60;99.90
40151;DHT22;25866;52.420;10.640;2023-09-19T04:57:23;15.60;99.90
40151;DHT22;25866;52.420;10.640;2023-09-19T04:59:51;15.60;99.90
40151;DHT22;25866;52.420;10.640;2023-09-19T05:02:16;15.60;99.90
40151;DHT22;25866;52.420;10.640;2023-09-19T05:04:42;15.50;99.90
40151;DHT22;25866;52.420;10.640;2023-09-19T05:07:09;15.50;99.90
40151;DHT22;25866;52.420;10.640;2023-09-19T05:09:36;15.50;99.90
40151;DHT22;25866;52.420;10.640;2023-09-19T05:12:03;15.50;99.90
40151;DHT22;25866;52.420;10.640;2023-09-19T05:14:28;15.50;99.90
40151;DHT22;25866;52.420;10.640;2023-09-19T05:16:55;15.50;99.90
40151;DHT22;25866;52.420;10.640;2023-09-19T05:19:21;15.50;99.90
40151;DHT22;25866;52.420;10.640;2023-09-19T05:21:47;15.50;99.90
40151;DHT22;25866;52.420;10.640;2023-09-19T05:24:13;15.50;99.90
40151;DHT22;25866;52.420;10.640;2023-09-19T05:26:40;15.50;99.90
40151;DHT22;25866;52.420;10.640;2023-09-19T05:29:06;15.60;99.90
40151;DHT22;25866;52.420;10.640;2023-09-19T05:31:33;15.60;99.90
40151;DHT22;25866;52.420;10.640;2023-09-19T05:34:01;15.60;99.90
40151;DHT22;25866;52.420;10.640;2023-09-19T05:36:27;15.60;99.90
40151;DHT22;25866;52.420;10.640;2023-09-19T05:38:55;15.50;99.90
40151;DHT22;25866;52.420;10.640;2023-09-19T05:41:21;15.50;99.90
40151;DHT22;25866;52.420;10.640;2023-09-19T05:43:49;15.50;99.90
40151;DHT22;25866;52.420;10.640;2023-09-19T05:46:16;15.50;99.90
40151;DHT22;25866;52.420;10.640;2023-09-19T05:48:42;15.40;99.90
40151;DHT22;25866;52.420;10.640;2023-09-19T05:51:09;15.40;99.90
40151;DHT22;25866;52.420;10.640;2023-09-19T05:53:35;15.40;99.90
40151;DHT22;25866;52.420;10.640;2023-09-19T05:56:01;15.40;99.90
40151;DHT22;25866;52.420;10.640;2023-09-19T05:58:27;15.40;99.90
40151;DHT22;25866;52.420;10.640;2023-09-19T06:00:53;15.40;99.90
40151;DHT22;25866;52.420;10.640;2023-09-19T06:03:18;15.40;99.90
40151;DHT22;25866;52.420;10.640;2023-09-19T06:05:47;15.40;99.90
40151;DHT22;25866;52.420;10.640;2023-09-19T06:08:15;15.40;99.90
40151;DHT22;25866;52.420;10.640;2023-09-19T06:10:40;15.30;99.90
40151;DHT22;25866;52.420;10.640;2023-09-19T06:13:06;15.40;99.90
40151;DHT22;25866;52.420;10.640;2023-09-19T06:15:35;15.40;99.90
40151;DHT22;25866;52.420;10.640;2023-09-19T06:18:01;15.30;99.90
40151;DHT22;25866;52.420;10.640;2023-09-19T06:20:30;15.40;99.90
40151;DHT22;25866;52.420;10.640;2023-09-19T06:22:57;15.40;99.90
40151;DHT22;25866;52.420;10.640;2023-09-19T06:25:23;15.40;99.90
40151;DHT22;25866;52.420;10.640;2023-09-19T06:27:49;15.50;99.90
40151;DHT22;25866;52.420;10.640;2023-09-19T06:30:17;15.60;99.90
40151;DHT22;25866;52.420;10.640;2023-09-19T06:32:43;15.70;99.90
40151;DHT22;25866;52.420;10.640;2023-09-19T06:35:13;15.80;99.90
40151;DHT22;25866;52.420;10.640;2023-09-19T06:37:40;15.80;99.90
40151;DHT22;25866;52.420;10.640;2023-09-19T06:40:13;15.80;99.90
40151;DHT22;25866;52.420;10.640;2023-09-19T06:42:51;16.00;99.90
40151;DHT22;25866;52.420;10.640;2023-09-19T06:45:18;16.10;99.90
40151;DHT22;25866;52.420;10.640;2023-09-19T06:47:51;16.20;99.90
40151;DHT22;25866;52.420;10.640;2023-09-19T06:50:21;16.10;99.90
40151;DHT22;25866;52.420;10.640;2023-09-19T06:52:49;16.00;99.90
40151;DHT22;25866;52.420;10.640;2023-09-19T06:55:17;15.90;99.90
40151;DHT22;25866;52.420;10.640;2023-09-19T06:57:46;16.00;99.90
40151;DHT22;25866;52.420;10.640;2023-09-19T07:00:12;16.00;99.90
40151;DHT22;25866;52.420;10.640;2023-09-19T07:02:45;16.10;99.90
40151;DHT22;25866;52.420;10.640;2023-09-19T07:05:11;16.10;99.90
40151;DHT22;25866;52.420;10.640;2023-09-19T07:07:36;16.10;99.90
40151;DHT22;25866;52.420;10.640;2023-09-19T07:10:03;16.10;99.90
40151;DHT22;25866;52.420;10.640;2023-09-19T07:12:31;16.20;99.90
40151;DHT22;25866;52.420;10.640;2023-09-19T07:14:58;16.20;99.90
40151;DHT22;25866;52.420;10.640;2023-09-19T07:17:24;16.20;99.90
40151;DHT22;25866;52.420;10.640;2023-09-19T07:19:50;16.20;99.90
40151;DHT22;25866;52.420;10.640;2023-09-19T07:22:16;16.30;99.90
40151;DHT22;25866;52.420;10.640;2023-09-19T07:24:42;16.30;99.90
40151;DHT22;25866;52.420;10.640;2023-09-19T07:27:08;16.40;99.90
40151;DHT22;25866;52.420;10.640;2023-09-19T07:29:34;16.40;99.90
40151;DHT22;25866;52.420;10.640;2023-09-19T07:32:00;16.40;99.90
40151;DHT22;25866;52.420;10.640;2023-09-19T07:34:25;16.40;99.90
40151;DHT22;25866;52.420;10.640;2023-09-19T07:36:51;16.40;99.90
40151;DHT22;25866;52.420;10.640;2023-09-19T07:39:17;16.40;99.90
40151;DHT22;25866;52.420;10.640;2023-09-19T07:41:43;16.40;99.90
40151;DHT22;25866;52.420;10.640;2023-09-19T07:44:10;16.50;99.90
40151;DHT22;25866;52.420;10.640;2023-09-19T07:46:36;16.50;99.90
40151;DHT22;25866;52.420;10.640;2023-09-19T07:49:01;16.50;99.90
40151;DHT22;25866;52.420;10.640;2023-09-19T07:51:27;16.50;99.90
40151;DHT22;25866;52.420;10.640;2023-09-19T07:53:53;16.60;99.90
40151;DHT22;25866;52.420;10.640;2023-09-19T07:56:20;16.60;99.90
40151;DHT22;25866;52.420;10.640;2023-09-19T07:58:46;16.60;99.90
40151;DHT22;25866;52.420;10.640;2023-09-19T08:01:12;16.70;99.90
40151;DHT22;25866;52.420;10.640;2023-09-19T08:03:39;16.70;99.90
40151;DHT22;25866;52.420;10.640;2023-09-19T08:06:10;16.80;99.90
40151;DHT22;25866;52.420;10.640;2023-09-19T08:08:36;16.80;99.90
40151;DHT22;25866;52.420;10.640;2023-09-19T08:11:06;16.80;99.90
40151;DHT22;25866;52.420;10.640;2023-09-19T08:13:40;16.80;99.90
40151;DHT22;25866;52.420;10.640;2023-09-19T08:16:10;16.80;99.90
40151;DHT22;25866;52.420;10.640;2023-09-19T08:18:36;16.80;99.90
40151;DHT22;25866;52.420;10.640;2023-09-19T08:21:05;16.80;99.90
40151;DHT22;25866;52.420;10.640;2023-09-19T08:23:33;16.80;99.90
40151;DHT22;25866;52.420;10.640;2023-09-19T08:25:59;16.90;99.90
40151;DHT22;25866;52.420;10.640;2023-09-19T08:28:28;16.90;99.90
40151;DHT22;25866;52.420;10.640;2023-09-19T08:30:55;17.00;99.90
40151;DHT22;25866;52.420;10.640;2023-09-19T08:33:21;16.90;99.90
40151;DHT22;25866;52.420;10.640;2023-09-19T08:35:46;17.00;99.90
40151;DHT22;25866;52.420;10.640;2023-09-19T08:38:12;17.10;99.90
40151;DHT22;25866;52.420;10.640;2023-09-19T08:40:40;17.20;99.90
40151;DHT22;25866;52.420;10.640;2023-09-19T08:43:07;17.20;99.90
40151;DHT22;25866;52.420;10.640;2023-09-19T08:45:34;17.30;99.90
40151;DHT22;25866;52.420;10.640;2023-09-19T08:48:23;17.30;99.90
40151;DHT22;25866;52.420;10.640;2023-09-19T08:51:06;17.30;99.90
40151;DHT22;25866;52.420;10.640;2023-09-19T08:53:47;17.40;99.90
40151;DHT22;25866;52.420;10.640;2023-09-19T08:56:17;17.50;99.90
40151;DHT22;25866;52.420;10.640;2023-09-19T08:58:50;17.50;99.90
40151;DHT22;25866;52.420;10.640;2023-09-19T09:01:20;17.50;99.90
40151;DHT22;25866;52.420;10.640;2023-09-19T09:03:54;17.40;99.90
40151;DHT22;25866;52.420;10.640;2023-09-19T09:06:21;17.40;99.90
40151;DHT22;25866;52.420;10.640;2023-09-19T09:08:47;17.40;99.90
40151;DHT22;25866;52.420;10.640;2023-09-19T09:11:14;17.50;99.90
40151;DHT22;25866;52.420;10.640;2023-09-19T09:13:40;17.60;99.90
40151;DHT22;25866;52.420;10.640;2023-09-19T09:16:08;17.60;99.90
40151;DHT22;25866;52.420;10.640;2023-09-19T09:18:36;17.60;99.90
40151;DHT22;25866;52.420;10.640;2023-09-19T09:21:02;17.60;99.90
40151;DHT22;25866;52.420;10.640;2023-09-19T09:23:30;17.60;99.90
40151;DHT22;25866;52.420;10.640;2023-09-19T09:25:59;17.50;99.90
40151;DHT22;25866;52.420;10.640;2023-09-19T09:28:29;17.60;99.90
40151;DHT22;25866;52.420;10.640;2023-09-19T09:30:57;17.60;99.90
40151;DHT22;25866;52.420;10.640;2023-09-19T09:33:34;17.60;99.90
40151;DHT22;25866;52.420;10.640;2023-09-19T09:36:01;17.70;99.90
40151;DHT22;25866;52.420;10.640;2023-09-19T09:38:30;17.80;99.90
40151;DHT22;25866;52.420;10.640;2023-09-19T09:41:09;17.80;99.90
40151;DHT22;25866;52.420;10.640;2023-09-19T09:43:37;17.70;99.90
40151;DHT22;25866;52.420;10.640;2023-09-19T09:46:17;17.70;99.90
40151;DHT22;25866;52.420;10.640;2023-09-19T09:51:43;17.80;99.90
40151;DHT22;25866;52.420;10.640;2023-09-19T09:54:12;18.00;99.90
40151;DHT22;25866;52.420;10.640;2023-09-19T09:56:58;18.00;99.90
40151;DHT22;25866;52.420;10.640;2023-09-19T10:00:01;18.10;99.90
40151;DHT22;25866;52.420;10.640;2023-09-19T10:02:39;18.10;99.90
40151;DHT22;25866;52.420;10.640;2023-09-19T10:05:18;18.10;99.90
40151;DHT22;25866;52.420;10.640;2023-09-19T10:07:55;18.10;99.90
40151;DHT22;25866;52.420;10.640;2023-09-19T10:10:40;18.20;99.90
40151;DHT22;25866;52.420;10.640;2023-09-19T10:13:07;18.20;99.90
40151;DHT22;25866;52.420;10.640;2023-09-19T10:15:33;18.20;99.90
40151;DHT22;25866;52.420;10.640;2023-09-19T10:18:04;18.30;99.90
40151;DHT22;25866;52.420;10.640;2023-09-19T10:20:30;18.40;99.90
40151;DHT22;25866;52.420;10.640;2023-09-19T10:23:08;18.50;99.90
40151;DHT22;25866;52.420;10.640;2023-09-19T10:25:42;18.40;99.90
40151;DHT22;25866;52.420;10.640;2023-09-19T10:28:13;18.30;99.90
40151;DHT22;25866;52.420;10.640;2023-09-19T10:30:47;18.20;99.90
40151;DHT22;25866;52.420;10.640;2023-09-19T10:33:17;18.20;99.90
40151;DHT22;25866;52.420;10.640;2023-09-19T10:35:47;18.10;99.90
40151;DHT22;25866;52.420;10.640;2023-09-19T10:38:14;18.10;99.90
40151;DHT22;25866;52.420;10.640;2023-09-19T10:40:44;18.10;99.90
40151;DHT22;25866;52.420;10.640;2023-09-19T10:43:15;18.20;99.90
40151;DHT22;25866;52.420;10.640;2023-09-19T10:45:44;18.20;99.90
40151;DHT22;25866;52.420;10.640;2023-09-19T10:48:10;18.30;99.90
40151;DHT22;25866;52.420;10.640;2023-09-19T10:51:06;18.30;99.90
40151;DHT22;25866;52.420;10.640;2023-09-19T10:53:41;18.30;99.90
40151;DHT22;25866;52.420;10.640;2023-09-19T10:56:08;18.30;99.90
40151;DHT22;25866;52.420;10.640;2023-09-19T10:58:43;18.40;99.90
40151;DHT22;25866;52.420;10.640;2023-09-19T11:01:11;18.30;99.90
40151;DHT22;25866;52.420;10.640;2023-09-19T11:03:41;18.30;99.90
40151;DHT22;25866;52.420;10.640;2023-09-19T11:06:17;18.40;99.90
40151;DHT22;25866;52.420;10.640;2023-09-19T11:09:04;18.40;99.90
40151;DHT22;25866;52.420;10.640;2023-09-19T11:11:50;18.40;99.90
40151;DHT22;25866;52.420;10.640;2023-09-19T11:30:44;18.70;99.90
40151;DHT22;25866;52.420;10.640;2023-09-19T11:33:29;18.70;99.90
40151;DHT22;25866;52.420;10.640;2023-09-19T11:36:10;18.70;99.90
40151;DHT22;25866;52.420;10.640;2023-09-19T11:46:17;18.70;99.90
40151;DHT22;25866;52.420;10.640;2023-09-19T11:48:50;18.70;99.90
40151;DHT22;25866;52.420;10.640;2023-09-19T11:51:18;18.70;99.90
40151;DHT22;25866;52.420;10.640;2023-09-19T11:53:51;18.80;99.90
40151;DHT22;25866;52.420;10.640;2023-09-19T11:56:19;18.80;99.90
40151;DHT22;25866;52.420;10.640;2023-09-19T11:58:54;18.80;99.90
40151;DHT22;25866;52.420;10.640;2023-09-19T12:01:26;18.70;99.90
40151;DHT22;25866;52.420;10.640;2023-09-19T12:03:56;18.80;99.90
40151;DHT22;25866;52.420;10.640;2023-09-19T12:06:26;18.90;99.90
40151;DHT22;25866;52.420;10.640;2023-09-19T12:08:52;18.90;99.90
40151;DHT22;25866;52.420;10.640;2023-09-19T12:11:23;19.00;99.90
40151;DHT22;25866;52.420;10.640;2023-09-19T12:13:50;19.00;99.90
40151;DHT22;25866;52.420;10.640;2023-09-19T12:16:19;19.10;99.90
40151;DHT22;25866;52.420;10.640;2023-09-19T12:18:49;19.20;99.90
40151;DHT22;25866;52.420;10.640;2023-09-19T12:24:00;19.30;99.90
40151;DHT22;25866;52.420;10.640;2023-09-19T12:26:42;19.30;99.90
40151;DHT22;25866;52.420;10.640;2023-09-19T12:29:17;19.20;99.90
40151;DHT22;25866;52.420;10.640;2023-09-19T12:31:56;19.20;99.90
40151;DHT22;25866;52.420;10.640;2023-09-19T12:34:30;19.40;99.90
40151;DHT22;25866;52.420;10.640;2023-09-19T12:37:15;19.50;99.90
40151;DHT22;25866;52.420;10.640;2023-09-19T12:39:46;19.40;99.90
40151;DHT22;25866;52.420;10.640;2023-09-19T12:42:18;19.50;99.90
40151;DHT22;25866;52.420;10.640;2023-09-19T12:44:46;19.50;99.90
40151;DHT22;25866;52.420;10.640;2023-09-19T12:47:17;19.50;99.90
40151;DHT22;25866;52.420;10.640;2023-09-19T12:50:15;19.50;99.90
40151;DHT22;25866;52.420;10.640;2023-09-19T12:52:46;19.60;99.90
40151;DHT22;25866;52.420;10.640;2023-09-19T12:55:28;19.40;99.90
40151;DHT22;25866;52.420;10.640;2023-09-19T12:58:09;19.30;99.90
40151;DHT22;25866;52.420;10.640;2023-09-19T13:00:42;19.30;99.90
40151;DHT22;25866;52.420;10.640;2023-09-19T13:03:18;19.30;99.90
40151;DHT22;25866;52.420;10.640;2023-09-19T13:06:02;19.30;99.90
40151;DHT22;25866;52.420;10.640;2023-09-19T13:08:35;19.40;99.90
40151;DHT22;25866;52.420;10.640;2023-09-19T13:11:14;19.40;99.90
40151;DHT22;25866;52.420;10.640;2023-09-19T13:13:48;19.50;99.90
40151;DHT22;25866;52.420;10.640;2023-09-19T13:16:15;19.40;99.90
40151;DHT22;25866;52.420;10.640;2023-09-19T13:18:50;19.40;99.90
40151;DHT22;25866;52.420;10.640;2023-09-19T13:21:32;19.30;99.90
40151;DHT22;25866;52.420;10.640;2023-09-19T13:24:22;19.20;99.90
40151;DHT22;25866;52.420;10.640;2023-09-19T13:26:48;19.30;99.90
40151;DHT22;25866;52.420;10.640;2023-09-19T13:29:15;19.20;99.90
40151;DHT22;25866;52.420;10.640;2023-09-19T13:31:53;19.20;99.90
40151;DHT22;25866;52.420;10.640;2023-09-19T13:34:19;19.30;99.90
40151;DHT22;25866;52.420;10.640;2023-09-19T13:36:45;19.40;99.90
40151;DHT22;25866;52.420;10.640;2023-09-19T13:39:18;19.40;99.90
40151;DHT22;25866;52.420;10.640;2023-09-19T13:41:47;19.50;99.90
40151;DHT22;25866;52.420;10.640;2023-09-19T13:44:14;19.60;99.90
40151;DHT22;25866;52.420;10.640;2023-09-19T13:46:39;19.50;99.90
40151;DHT22;25866;52.420;10.640;2023-09-19T13:49:06;19.60;99.90
40151;DHT22;25866;52.420;10.640;2023-09-19T13:51:32;19.80;99.90
40151;DHT22;25866;52.420;10.640;2023-09-19T13:53:58;19.90;99.90
40151;DHT22;25866;52.420;10.640;2023-09-19T13:56:25;19.90;99.90
40151;DHT22;25866;52.420;10.640;2023-09-19T13:58:53;20.00;99.90
40151;DHT22;25866;52.420;10.640;2023-09-19T14:01:20;20.10;99.90
40151;DHT22;25866;52.420;10.640;2023-09-19T14:03:45;20.10;99.90
40151;DHT22;25866;52.420;10.640;2023-09-19T14:06:16;20.20;99.90
40151;DHT22;25866;52.420;10.640;2023-09-19T14:08:43;20.20;99.90
40151;DHT22;25866;52.420;10.640;2023-09-19T14:11:10;20.20;99.90
40151;DHT22;25866;52.420;10.640;2023-09-19T14:13:36;20.20;99.90
40151;DHT22;25866;52.420;10.640;2023-09-19T14:16:06;20.20;99.90
40151;DHT22;25866;52.420;10.640;2023-09-19T14:18:32;20.30;99.90
40151;DHT22;25866;52.420;10.640;2023-09-19T14:21:03;20.30;99.90
40151;DHT22;25866;52.420;10.640;2023-09-19T14:23:33;20.30;99.90
40151;DHT22;25866;52.420;10.640;2023-09-19T14:26:01;20.40;99.90
40151;DHT22;25866;52.420;10.640;2023-09-19T14:28:26;20.40;99.90
40151;DHT22;25866;52.420;10.640;2023-09-19T14:30:53;20.40;99.90
40151;DHT22;25866;52.420;10.640;2023-09-19T14:33:19;20.20;99.90
40151;DHT22;25866;52.420;10.640;2023-09-19T14:35:45;20.10;99.90
40151;DHT22;25866;52.420;10.640;2023-09-19T14:38:10;20.00;99.90
40151;DHT22;25866;52.420;10.640;2023-09-19T14:40:36;19.90;99.90
40151;DHT22;25866;52.420;10.640;2023-09-19T14:43:02;19.80;99.90
40151;DHT22;25866;52.420;10.640;2023-09-19T14:45:28;19.70;99.90
40151;DHT22;25866;52.420;10.640;2023-09-19T14:47:56;19.70;99.90
40151;DHT22;25866;52.420;10.640;2023-09-19T14:50:22;19.60;99.90
40151;DHT22;25866;52.420;10.640;2023-09-19T14:52:49;19.50;99.90
40151;DHT22;25866;52.420;10.640;2023-09-19T14:55:17;19.50;99.90
40151;DHT22;25866;52.420;10.640;2023-09-19T14:57:43;19.50;99.90
40151;DHT22;25866;52.420;10.640;2023-09-19T15:00:12;19.50;99.90
40151;DHT22;25866;52.420;10.640;2023-09-19T15:02:39;19.50;99.90
40151;DHT22;25866;52.420;10.640;2023-09-19T15:05:06;19.50;99.90
40151;DHT22;25866;52.420;10.640;2023-09-19T15:07:35;19.50;99.90
40151;DHT22;25866;52.420;10.640;2023-09-19T15:10:03;19.50;99.90
40151;DHT22;25866;52.420;10.640;2023-09-19T15:12:29;19.40;99.90
40151;DHT22;25866;52.420;10.640;2023-09-19T15:14:54;19.40;99.90
40151;DHT22;25866;52.420;10.640;2023-09-19T15:17:20;19.40;99.90
40151;DHT22;25866;52.420;10.640;2023-09-19T15:19:46;19.30;99.90
40151;DHT22;25866;52.420;10.640;2023-09-19T15:22:12;19.40;99.90
40151;DHT22;25866;52.420;10.640;2023-09-19T15:24:38;19.40;99.90
40151;DHT22;25866;52.420;10.640;2023-09-19T15:27:04;19.40;99.90
40151;DHT22;25866;52.420;10.640;2023-09-19T15:29:30;19.30;99.90
40151;DHT22;25866;52.420;10.640;2023-09-19T15:31:56;19.30;99.90
40151;DHT22;25866;52.420;10.640;2023-09-19T15:34:27;19.30;99.90
40151;DHT22;25866;52.420;10.640;2023-09-19T15:36:54;19.20;99.90
40151;DHT22;25866;52.420;10.640;2023-09-19T15:39:20;19.20;99.90
40151;DHT22;25866;52.420;10.640;2023-09-19T15:41:48;19.20;99.90
40151;DHT22;25866;52.420;10.640;2023-09-19T15:44:19;19.20;99.90
40151;DHT22;25866;52.420;10.640;2023-09-19T15:46:45;19.20;99.90
40151;DHT22;25866;52.420;10.640;2023-09-19T15:49:11;19.10;99.90
40151;DHT22;25866;52.420;10.640;2023-09-19T15:51:38;19.10;99.90
40151;DHT22;25866;52.420;10.640;2023-09-19T15:54:15;19.10;99.90
40151;DHT22;25866;52.420;10.640;2023-09-19T15:56:42;19.10;99.90
40151;DHT22;25866;52.420;10.640;2023-09-19T15:59:08;19.10;99.90
40151;DHT22;25866;52.420;10.640;2023-09-19T16:01:35;19.10;99.90
40151;DHT22;25866;52.420;10.640;2023-09-19T16:04:02;19.20;99.90
40151;DHT22;25866;52.420;10.640;2023-09-19T16:06:30;19.20;99.90
40151;DHT22;25866;52.420;10.640;2023-09-19T16:08:58;19.30;99.90
40151;DHT22;25866;52.420;10.640;2023-09-19T16:11:25;19.30;99.90
40151;DHT22;25866;52.420;10.640;2023-09-19T16:13:53;19.30;99.90
40151;DHT22;25866;52.420;10.640;2023-09-19T16:16:20;19.20;99.90
40151;DHT22;25866;52.420;10.640;2023-09-19T16:18:49;19.10;99.90
40151;DHT22;25866;52.420;10.640;2023-09-19T16:21:17;19.00;99.90